KGRF/GRF METAR and TAF weather

Enter ICAO airport designator
Station Type Date Time Source
KGRF METAR 2019/10/14 03:58 UTC NOAA

KGRF 140358Z AUTO 00000KT 10SM FEW038 SCT050 11/11 A3001 RMK AO2 RAE14 SLP167 P0000 T01060106 $


Station Type Date Time Source
KGRF Decoded METAR 2019/10/14 03:58 UTC NOAA

Fort Lewis / Gray U. S. Army Airfield, WA, United States (KGRF) 47-07N 122-33W 87M
Oct 13, 2019 - 11:58 PM EDT / 2019.10.14 0358 UTC
Wind: Calm:0
Visibility: 10 mile(s):0
Sky conditions: partly cloudy
Precipitation last hour: A trace
Temperature: 51.1 F (10.6 C)
Dew Point: 51.1 F (10.6 C)
Relative Humidity: 100%
Pressure (altimeter): 30.01 in. Hg (1016 hPa)
ob: KGRF 140358Z AUTO 00000KT 10SM FEW038 SCT050 11/11 A3001 RMK AO2 RAE14 SLP167 P0000 T01060106
cycle: 4

Station Type Date Time Source
KGRF TAF 2019/10/14 05:03 UTC NOAA

TAF KGRF 140500Z 1405/1511 VRB06KT 9999 BKN050 QNH3000INS
BECMG 1408/1409 VRB06KT 8000 BR BKN015 QNH3002INS
BECMG 1412/1413 VRB06KT 3600 BR BKN008 QNH3006INS
BECMG 1416/1417 VRB06KT 9999 NSW BKN020 QNH3002INS
BECMG 1502/1503 VRB06KT 9999 SCT100 QNH2993INS TX14/1423Z TN05/1413Z

Example: see airport list